RYR2778 LGTS-EPKK
Flight info
| Callsign | RYR2778 |
|---|---|
| Flight time | N/A |
| Altitude | 38000 |
| Route | FSK UN128 RUGAS DCT SIN DCT RAXAD DCT PARAK DCT LITKU DCT REDSI DCT MEBAN |
| Aircraft | B38M/M-SADE3FGIJ1LRWY/SB1 |
Departure
| Time | N/A |
|---|---|
| Airport | Thessaloniki Macedonia International Airport (LGTS) |
Arrival
| Time | 2026-05-05 14:52 |
|---|---|
| Airport | Kraków John Paul II International Airport (EPKK) |
| Time | Latitude | Longitude | Altitude | Speed | Heading |
|---|---|---|---|---|---|
| 2026-05-05 13:26 | 41.02269 | 22.82092 | 17830 ft | 398 kts | 356° |
| 2026-05-05 13:27 | 41.05045 | 22.81826 | 18395 ft | 401 kts | 355° |
| 2026-05-05 13:27 | 41.07833 | 22.81558 | 18878 ft | 403 kts | 355° |
| 2026-05-05 13:27 | 41.10644 | 22.81287 | 19366 ft | 405 kts | 355° |
| 2026-05-05 13:27 | 41.13465 | 22.81016 | 19835 ft | 408 kts | 355° |
| 2026-05-05 13:28 | 41.16303 | 22.80743 | 20307 ft | 410 kts | 355° |
| 2026-05-05 13:28 | 41.19154 | 22.80469 | 20792 ft | 412 kts | 355° |
| 2026-05-05 13:28 | 41.22019 | 22.80193 | 21266 ft | 414 kts | 355° |
| 2026-05-05 13:28 | 41.24901 | 22.79915 | 21735 ft | 417 kts | 355° |
| 2026-05-05 13:29 | 41.27806 | 22.79635 | 22201 ft | 419 kts | 355° |
| 2026-05-05 13:29 | 41.30718 | 22.79354 | 22656 ft | 422 kts | 354° |
| 2026-05-05 13:29 | 41.33597 | 22.78622 | 23099 ft | 422 kts | 340° |
| 2026-05-05 13:29 | 41.36369 | 22.77167 | 23597 ft | 425 kts | 338° |
| 2026-05-05 13:30 | 41.39124 | 22.75694 | 23988 ft | 428 kts | 338° |
| 2026-05-05 13:30 | 41.41881 | 22.74194 | 24398 ft | 430 kts | 337° |
| 2026-05-05 13:30 | 41.44656 | 22.72667 | 24791 ft | 432 kts | 337° |
| 2026-05-05 13:30 | 41.47448 | 22.71124 | 25187 ft | 435 kts | 337° |
| 2026-05-05 13:31 | 41.50247 | 22.69573 | 25570 ft | 437 kts | 337° |
| 2026-05-05 13:31 | 41.53066 | 22.68009 | 25941 ft | 440 kts | 337° |
| 2026-05-05 13:31 | 41.55903 | 22.66459 | 26310 ft | 442 kts | 338° |
| 2026-05-05 13:31 | 41.58791 | 22.64992 | 26696 ft | 444 kts | 338° |
| 2026-05-05 13:32 | 41.61673 | 22.63517 | 27171 ft | 443 kts | 338° |
| 2026-05-05 13:32 | 41.64544 | 22.62039 | 27701 ft | 442 kts | 338° |
| 2026-05-05 13:32 | 41.67414 | 22.60560 | 28236 ft | 440 kts | 338° |
| 2026-05-05 13:32 | 41.70260 | 22.59091 | 28744 ft | 439 kts | 338° |
| 2026-05-05 13:33 | 41.73114 | 22.57615 | 29255 ft | 438 kts | 338° |
| 2026-05-05 13:33 | 41.75948 | 22.56149 | 29733 ft | 437 kts | 338° |
| 2026-05-05 13:33 | 41.78776 | 22.54685 | 30233 ft | 435 kts | 338° |
| 2026-05-05 13:33 | 41.81603 | 22.53219 | 30641 ft | 434 kts | 338° |
| 2026-05-05 13:34 | 41.84411 | 22.51762 | 31070 ft | 433 kts | 338° |
| 2026-05-05 13:34 | 41.87213 | 22.50308 | 31488 ft | 432 kts | 337° |
| 2026-05-05 13:34 | 41.90010 | 22.48853 | 31913 ft | 430 kts | 337° |
| 2026-05-05 13:34 | 41.92799 | 22.47402 | 32327 ft | 429 kts | 337° |
| 2026-05-05 13:35 | 41.95583 | 22.45953 | 32725 ft | 428 kts | 337° |
| 2026-05-05 13:35 | 41.98360 | 22.44504 | 33110 ft | 428 kts | 337° |
| 2026-05-05 13:35 | 42.01127 | 22.43061 | 33501 ft | 426 kts | 337° |
| 2026-05-05 13:35 | 42.03928 | 22.41599 | 33926 ft | 425 kts | 337° |
| 2026-05-05 13:36 | 42.06677 | 22.40162 | 34278 ft | 424 kts | 337° |
| 2026-05-05 13:36 | 42.09422 | 22.38725 | 34590 ft | 423 kts | 337° |
| 2026-05-05 13:36 | 42.12163 | 22.37290 | 34915 ft | 423 kts | 336° |
| 2026-05-05 13:36 | 42.14912 | 22.35850 | 35198 ft | 423 kts | 337° |
| 2026-05-05 13:37 | 42.17650 | 22.34412 | 35509 ft | 423 kts | 337° |
| 2026-05-05 13:37 | 42.20391 | 22.32973 | 35827 ft | 422 kts | 337° |
| 2026-05-05 13:37 | 42.23129 | 22.31533 | 36101 ft | 422 kts | 337° |
| 2026-05-05 13:37 | 42.25862 | 22.30096 | 36389 ft | 422 kts | 337° |
| 2026-05-05 13:38 | 42.28595 | 22.28657 | 36658 ft | 422 kts | 337° |
| 2026-05-05 13:38 | 42.31367 | 22.27195 | 36928 ft | 421 kts | 337° |
| 2026-05-05 13:38 | 42.34057 | 22.25775 | 37198 ft | 421 kts | 337° |
| 2026-05-05 13:38 | 42.36817 | 22.24317 | 37480 ft | 420 kts | 337° |
| 2026-05-05 13:39 | 42.39538 | 22.22879 | 37726 ft | 421 kts | 337° |
| 2026-05-05 13:39 | 42.42263 | 22.21438 | 37959 ft | 421 kts | 336° |
| 2026-05-05 13:39 | 42.47720 | 22.18546 | 38028 ft | 420 kts | 337° |
| 2026-05-05 13:40 | 42.53150 | 22.15664 | 38019 ft | 419 kts | 337° |
| 2026-05-05 13:40 | 42.58588 | 22.12771 | 38005 ft | 420 kts | 337° |
| 2026-05-05 13:41 | 42.64031 | 22.09871 | 38027 ft | 420 kts | 337° |
| 2026-05-05 13:41 | 42.69473 | 22.06966 | 38022 ft | 421 kts | 336° |
| 2026-05-05 13:42 | 42.74923 | 22.04051 | 38019 ft | 421 kts | 337° |
| 2026-05-05 13:42 | 42.80385 | 22.01125 | 38010 ft | 422 kts | 337° |
| 2026-05-05 13:43 | 42.85839 | 21.98196 | 38020 ft | 422 kts | 336° |
| 2026-05-05 13:43 | 42.91302 | 21.95257 | 38009 ft | 422 kts | 336° |
| 2026-05-05 13:44 | 42.96765 | 21.92313 | 38008 ft | 422 kts | 337° |
| 2026-05-05 13:44 | 43.02232 | 21.89360 | 37984 ft | 422 kts | 336° |
| 2026-05-05 13:45 | 43.07704 | 21.86400 | 37987 ft | 423 kts | 336° |
| 2026-05-05 13:45 | 43.13213 | 21.83413 | 37987 ft | 423 kts | 337° |
| 2026-05-05 13:46 | 43.18692 | 21.80438 | 38000 ft | 424 kts | 337° |
| 2026-05-05 13:46 | 43.24169 | 21.77457 | 37998 ft | 424 kts | 337° |
| 2026-05-05 13:47 | 43.28731 | 21.74970 | 37998 ft | 424 kts | 337° |
| 2026-05-05 13:47 | 43.34214 | 21.71976 | 38002 ft | 424 kts | 337° |
| 2026-05-05 13:48 | 43.39708 | 21.68969 | 38008 ft | 425 kts | 337° |
| 2026-05-05 13:48 | 43.45210 | 21.65954 | 37990 ft | 425 kts | 337° |
| 2026-05-05 13:49 | 43.50709 | 21.62932 | 37992 ft | 426 kts | 337° |
| 2026-05-05 13:49 | 43.56252 | 21.59881 | 37981 ft | 426 kts | 336° |
| 2026-05-05 13:50 | 43.61760 | 21.56843 | 37979 ft | 427 kts | 337° |
| 2026-05-05 13:50 | 43.67266 | 21.53800 | 37980 ft | 427 kts | 337° |
| 2026-05-05 13:51 | 43.72792 | 21.50741 | 37988 ft | 428 kts | 337° |
| 2026-05-05 13:51 | 43.78314 | 21.47677 | 37975 ft | 428 kts | 336° |
| 2026-05-05 13:52 | 43.83839 | 21.44606 | 37978 ft | 428 kts | 336° |
| 2026-05-05 13:52 | 43.89373 | 21.41523 | 37984 ft | 428 kts | 336° |
| 2026-05-05 13:53 | 43.94906 | 21.38435 | 37980 ft | 429 kts | 336° |
| 2026-05-05 13:53 | 44.00445 | 21.35337 | 37981 ft | 429 kts | 336° |
| 2026-05-05 13:54 | 44.05990 | 21.32229 | 37978 ft | 430 kts | 336° |
| 2026-05-05 13:54 | 44.11539 | 21.29114 | 37983 ft | 430 kts | 336° |
| 2026-05-05 13:55 | 44.17093 | 21.25989 | 37973 ft | 431 kts | 336° |
| 2026-05-05 13:55 | 44.22687 | 21.22834 | 37970 ft | 431 kts | 336° |
| 2026-05-05 13:56 | 44.28247 | 21.19693 | 37965 ft | 431 kts | 336° |
| 2026-05-05 13:56 | 44.33805 | 21.16546 | 37973 ft | 431 kts | 336° |
| 2026-05-05 13:57 | 44.39369 | 21.13390 | 37968 ft | 432 kts | 336° |
| 2026-05-05 13:57 | 44.44945 | 21.10220 | 37966 ft | 432 kts | 336° |
| 2026-05-05 13:58 | 44.50518 | 21.07045 | 37966 ft | 433 kts | 336° |
| 2026-05-05 13:58 | 44.56135 | 21.03839 | 37966 ft | 433 kts | 336° |
| 2026-05-05 13:59 | 44.64500 | 20.99051 | 37968 ft | 433 kts | 336° |
| 2026-05-05 14:00 | 44.71935 | 20.94783 | 37969 ft | 434 kts | 336° |
| 2026-05-05 14:00 | 44.78470 | 20.91022 | 37964 ft | 434 kts | 336° |
| 2026-05-05 14:01 | 44.84068 | 20.87793 | 37956 ft | 435 kts | 336° |
| 2026-05-05 14:01 | 44.89668 | 20.84556 | 37963 ft | 435 kts | 336° |
| 2026-05-05 14:02 | 44.95303 | 20.81292 | 37959 ft | 435 kts | 336° |
| 2026-05-05 14:02 | 45.00915 | 20.78034 | 37951 ft | 436 kts | 336° |
| 2026-05-05 14:03 | 45.06522 | 20.74772 | 37959 ft | 436 kts | 336° |
| 2026-05-05 14:03 | 45.12142 | 20.71495 | 37953 ft | 437 kts | 336° |
| 2026-05-05 14:04 | 45.17765 | 20.68210 | 37952 ft | 437 kts | 336° |
| 2026-05-05 14:04 | 45.23398 | 20.64912 | 37947 ft | 438 kts | 336° |
| 2026-05-05 14:05 | 45.29030 | 20.61607 | 37950 ft | 438 kts | 336° |
| 2026-05-05 14:05 | 45.34666 | 20.58293 | 37951 ft | 439 kts | 336° |
| 2026-05-05 14:06 | 45.40310 | 20.54968 | 37944 ft | 439 kts | 336° |
| 2026-05-05 14:06 | 45.45955 | 20.51634 | 37945 ft | 440 kts | 336° |
| 2026-05-05 14:07 | 45.51648 | 20.48264 | 37942 ft | 440 kts | 336° |
| 2026-05-05 14:07 | 45.57300 | 20.44912 | 37944 ft | 440 kts | 336° |
| 2026-05-05 14:08 | 45.62960 | 20.41547 | 37941 ft | 441 kts | 336° |
| 2026-05-05 14:08 | 45.68624 | 20.38173 | 37942 ft | 441 kts | 336° |
| 2026-05-05 14:09 | 45.74286 | 20.34792 | 37933 ft | 441 kts | 336° |
| 2026-05-05 14:09 | 45.79957 | 20.31398 | 37937 ft | 442 kts | 336° |
| 2026-05-05 14:10 | 45.85629 | 20.27997 | 37932 ft | 442 kts | 336° |
| 2026-05-05 14:10 | 45.91308 | 20.24583 | 37935 ft | 443 kts | 336° |
| 2026-05-05 14:11 | 45.96984 | 20.21164 | 37932 ft | 443 kts | 336° |
| 2026-05-05 14:11 | 46.02668 | 20.17732 | 37933 ft | 443 kts | 336° |
| 2026-05-05 14:12 | 46.08348 | 20.14295 | 37931 ft | 444 kts | 336° |
| 2026-05-05 14:12 | 46.14046 | 20.10840 | 37925 ft | 444 kts | 336° |
| 2026-05-05 14:13 | 46.16954 | 20.09362 | 37914 ft | 445 kts | 347° |
| 2026-05-05 14:13 | 46.20014 | 20.08666 | 37934 ft | 446 kts | 349° |
| 2026-05-05 14:13 | 46.26180 | 20.07166 | 37929 ft | 447 kts | 349° |
| 2026-05-05 14:14 | 46.32318 | 20.05733 | 37927 ft | 447 kts | 349° |
| 2026-05-05 14:14 | 46.38464 | 20.04306 | 37924 ft | 447 kts | 349° |
| 2026-05-05 14:15 | 46.44604 | 20.02876 | 37927 ft | 447 kts | 349° |
| 2026-05-05 14:15 | 46.50750 | 20.01443 | 37922 ft | 448 kts | 349° |
| 2026-05-05 14:16 | 46.56904 | 20.00004 | 37925 ft | 448 kts | 349° |
| 2026-05-05 14:16 | 46.63060 | 19.98561 | 37924 ft | 448 kts | 349° |
| 2026-05-05 14:17 | 46.68208 | 19.97352 | 37931 ft | 448 kts | 349° |
| 2026-05-05 14:17 | 46.74369 | 19.95902 | 37932 ft | 448 kts | 349° |
| 2026-05-05 14:18 | 46.80527 | 19.94449 | 37933 ft | 448 kts | 349° |
| 2026-05-05 14:18 | 46.86690 | 19.92992 | 37934 ft | 448 kts | 349° |
| 2026-05-05 14:19 | 46.92851 | 19.91532 | 37937 ft | 449 kts | 349° |
| 2026-05-05 14:19 | 46.99006 | 19.90069 | 37939 ft | 449 kts | 349° |
| 2026-05-05 14:20 | 47.05216 | 19.88591 | 37933 ft | 449 kts | 349° |
| 2026-05-05 14:20 | 47.11375 | 19.87121 | 37935 ft | 449 kts | 349° |
| 2026-05-05 14:21 | 47.17553 | 19.85643 | 37922 ft | 449 kts | 349° |
| 2026-05-05 14:21 | 47.23734 | 19.84161 | 37918 ft | 450 kts | 349° |
| 2026-05-05 14:22 | 47.29949 | 19.82667 | 37916 ft | 450 kts | 349° |
| 2026-05-05 14:22 | 47.36129 | 19.81178 | 37912 ft | 450 kts | 349° |
| 2026-05-05 14:23 | 47.42310 | 19.79686 | 37916 ft | 450 kts | 348° |
| 2026-05-05 14:23 | 47.48494 | 19.78188 | 37917 ft | 450 kts | 348° |
| 2026-05-05 14:24 | 47.54677 | 19.76688 | 37913 ft | 451 kts | 348° |
| 2026-05-05 14:24 | 47.60867 | 19.75183 | 37913 ft | 451 kts | 348° |
| 2026-05-05 14:25 | 47.67062 | 19.73672 | 37915 ft | 451 kts | 348° |
| 2026-05-05 14:25 | 47.73249 | 19.72160 | 37916 ft | 451 kts | 348° |
| 2026-05-05 14:26 | 47.79444 | 19.70642 | 37917 ft | 451 kts | 348° |
| 2026-05-05 14:26 | 47.85631 | 19.69123 | 37910 ft | 451 kts | 348° |
| 2026-05-05 14:27 | 47.91831 | 19.67596 | 37915 ft | 451 kts | 348° |
| 2026-05-05 14:27 | 47.98023 | 19.66068 | 37899 ft | 451 kts | 348° |
| 2026-05-05 14:28 | 48.04214 | 19.64536 | 37912 ft | 451 kts | 348° |
| 2026-05-05 14:28 | 48.10406 | 19.63002 | 37907 ft | 451 kts | 348° |
| 2026-05-05 14:29 | 48.16602 | 19.61461 | 37901 ft | 451 kts | 348° |
| 2026-05-05 14:29 | 48.22804 | 19.59976 | 37900 ft | 453 kts | 353° |
| 2026-05-05 14:30 | 48.29162 | 19.60117 | 37899 ft | 455 kts | 359° |
| 2026-05-05 14:30 | 48.35475 | 19.60338 | 37462 ft | 452 kts | 359° |
| 2026-05-05 14:31 | 48.38647 | 19.60456 | 36369 ft | 460 kts | 359° |
| 2026-05-05 14:31 | 48.41859 | 19.60578 | 35536 ft | 463 kts | 359° |
| 2026-05-05 14:31 | 48.45071 | 19.60702 | 34897 ft | 461 kts | 359° |
| 2026-05-05 14:31 | 48.48316 | 19.60827 | 34171 ft | 462 kts | 359° |
| 2026-05-05 14:32 | 48.51554 | 19.60952 | 33248 ft | 465 kts | 359° |
| 2026-05-05 14:32 | 48.54789 | 19.61078 | 32346 ft | 469 kts | 359° |
| 2026-05-05 14:32 | 48.58066 | 19.61205 | 31504 ft | 470 kts | 359° |
| 2026-05-05 14:32 | 48.61341 | 19.61333 | 30657 ft | 472 kts | 359° |
| 2026-05-05 14:33 | 48.64640 | 19.61462 | 29681 ft | 477 kts | 359° |
| 2026-05-05 14:33 | 48.67981 | 19.61592 | 28582 ft | 481 kts | 359° |
| 2026-05-05 14:33 | 48.71329 | 19.61722 | 27592 ft | 482 kts | 359° |
| 2026-05-05 14:33 | 48.74683 | 19.61854 | 26713 ft | 482 kts | 359° |
| 2026-05-05 14:34 | 48.78022 | 19.61985 | 25953 ft | 478 kts | 359° |
| 2026-05-05 14:34 | 48.81330 | 19.62115 | 25201 ft | 474 kts | 359° |
| 2026-05-05 14:34 | 48.84639 | 19.62244 | 24442 ft | 475 kts | 359° |
| 2026-05-05 14:34 | 48.87938 | 19.62374 | 23704 ft | 475 kts | 359° |
| 2026-05-05 14:35 | 48.91240 | 19.62504 | 22895 ft | 471 kts | 359° |
| 2026-05-05 14:35 | 48.94511 | 19.62634 | 22119 ft | 468 kts | 359° |
| 2026-05-05 14:35 | 48.97756 | 19.62762 | 21403 ft | 465 kts | 360° |
| 2026-05-05 14:35 | 49.00976 | 19.62889 | 20688 ft | 461 kts | 360° |
| 2026-05-05 14:36 | 49.04175 | 19.63016 | 19966 ft | 459 kts | 0° |
| 2026-05-05 14:36 | 49.07354 | 19.63142 | 19271 ft | 456 kts | 0° |
| 2026-05-05 14:36 | 49.10522 | 19.63268 | 18572 ft | 455 kts | 0° |
| 2026-05-05 14:36 | 49.13683 | 19.63393 | 17827 ft | 453 kts | 0° |
| 2026-05-05 14:37 | 49.16819 | 19.63518 | 17092 ft | 451 kts | 0° |
| 2026-05-05 14:37 | 49.19950 | 19.63642 | 16406 ft | 448 kts | 0° |
| 2026-05-05 14:37 | 49.23056 | 19.63766 | 15736 ft | 445 kts | 360° |
| 2026-05-05 14:37 | 49.26133 | 19.63889 | 15116 ft | 441 kts | 360° |
| 2026-05-05 14:38 | 49.29185 | 19.64011 | 14511 ft | 437 kts | 360° |
| 2026-05-05 14:38 | 49.32215 | 19.64132 | 13866 ft | 435 kts | 359° |
| 2026-05-05 14:38 | 49.35263 | 19.64255 | 13333 ft | 429 kts | 359° |
| 2026-05-05 14:38 | 49.38192 | 19.64372 | 12598 ft | 428 kts | 359° |
| 2026-05-05 14:39 | 49.41160 | 19.64492 | 12010 ft | 424 kts | 359° |
| 2026-05-05 14:39 | 49.44085 | 19.64711 | 11504 ft | 419 kts | 7° |
| 2026-05-05 14:39 | 49.46845 | 19.66017 | 11225 ft | 411 kts | 24° |
| 2026-05-05 14:39 | 49.49366 | 19.67923 | 11120 ft | 397 kts | 26° |
| 2026-05-05 14:40 | 49.51819 | 19.69833 | 10942 ft | 385 kts | 26° |
| 2026-05-05 14:40 | 49.54161 | 19.71689 | 10771 ft | 374 kts | 26° |
| 2026-05-05 14:40 | 49.56444 | 19.73521 | 10585 ft | 364 kts | 26° |
| 2026-05-05 14:40 | 49.58651 | 19.75303 | 10426 ft | 353 kts | 27° |
| 2026-05-05 14:41 | 49.60791 | 19.77036 | 10285 ft | 343 kts | 26° |
| 2026-05-05 14:41 | 49.62870 | 19.78725 | 10133 ft | 334 kts | 26° |
| 2026-05-05 14:41 | 49.64901 | 19.80376 | 9999 ft | 324 kts | 26° |
| 2026-05-05 14:41 | 49.66877 | 19.81984 | 9760 ft | 320 kts | 26° |
| 2026-05-05 14:42 | 49.68845 | 19.83587 | 9403 ft | 319 kts | 27° |
| 2026-05-05 14:42 | 49.70794 | 19.85175 | 9094 ft | 317 kts | 26° |
| 2026-05-05 14:42 | 49.72730 | 19.86756 | 8789 ft | 314 kts | 26° |
| 2026-05-05 14:42 | 49.74654 | 19.88327 | 8493 ft | 312 kts | 27° |
| 2026-05-05 14:43 | 49.76576 | 19.89900 | 8200 ft | 310 kts | 27° |
| 2026-05-05 14:43 | 49.78474 | 19.91450 | 7875 ft | 307 kts | 27° |
| 2026-05-05 14:43 | 49.80349 | 19.92986 | 7619 ft | 303 kts | 27° |
| 2026-05-05 14:43 | 49.82208 | 19.94507 | 7345 ft | 299 kts | 27° |
| 2026-05-05 14:44 | 49.84045 | 19.96015 | 7159 ft | 295 kts | 27° |
| 2026-05-05 14:44 | 49.85863 | 19.97510 | 6880 ft | 295 kts | 27° |
| 2026-05-05 14:44 | 49.87685 | 19.99008 | 6616 ft | 298 kts | 27° |
| 2026-05-05 14:44 | 49.89526 | 20.00522 | 6280 ft | 302 kts | 27° |
| 2026-05-05 14:45 | 49.91385 | 20.02050 | 5979 ft | 302 kts | 27° |
| 2026-05-05 14:45 | 49.93236 | 20.03578 | 5687 ft | 302 kts | 28° |
| 2026-05-05 14:45 | 49.95092 | 20.05109 | 5424 ft | 299 kts | 27° |
| 2026-05-05 14:45 | 49.96911 | 20.06608 | 5312 ft | 293 kts | 27° |
| 2026-05-05 14:46 | 49.98119 | 20.07605 | 5200 ft | 290 kts | 28° |
| 2026-05-05 14:46 | 49.99876 | 20.09059 | 5069 ft | 284 kts | 28° |
| 2026-05-05 14:46 | 50.01600 | 20.10481 | 4929 ft | 277 kts | 28° |
| 2026-05-05 14:46 | 50.03377 | 20.11534 | 4652 ft | 275 kts | 4° |
| 2026-05-05 14:47 | 50.05246 | 20.11290 | 4453 ft | 264 kts | 345° |
| 2026-05-05 14:47 | 50.07018 | 20.10723 | 4336 ft | 256 kts | 345° |
| 2026-05-05 14:47 | 50.08727 | 20.10180 | 4206 ft | 244 kts | 344° |
| 2026-05-05 14:47 | 50.10195 | 20.09161 | 4013 ft | 223 kts | 313° |
| 2026-05-05 14:48 | 50.11009 | 20.07271 | 3898 ft | 201 kts | 282° |
| 2026-05-05 14:48 | 50.11146 | 20.05210 | 3698 ft | 186 kts | 259° |
| 2026-05-05 14:48 | 50.10983 | 20.03247 | 3489 ft | 180 kts | 257° |
| 2026-05-05 14:48 | 50.10792 | 20.01350 | 3277 ft | 175 kts | 256° |
| 2026-05-05 14:49 | 50.10587 | 19.99511 | 3149 ft | 169 kts | 254° |
| 2026-05-05 14:49 | 50.10371 | 19.97748 | 3022 ft | 164 kts | 252° |
| 2026-05-05 14:49 | 50.10152 | 19.96003 | 2874 ft | 165 kts | 253° |
| 2026-05-05 14:49 | 50.09923 | 19.94228 | 2623 ft | 165 kts | 253° |
| 2026-05-05 14:50 | 50.09692 | 19.92488 | 2392 ft | 163 kts | 255° |
| 2026-05-05 14:50 | 50.09462 | 19.90761 | 2164 ft | 163 kts | 252° |
| 2026-05-05 14:50 | 50.09228 | 19.89047 | 1907 ft | 156 kts | 253° |
| 2026-05-05 14:50 | 50.09024 | 19.87470 | 1675 ft | 146 kts | 251° |
| 2026-05-05 14:51 | 50.08819 | 19.85988 | 1530 ft | 134 kts | 252° |
| 2026-05-05 14:51 | 50.08607 | 19.84546 | 1385 ft | 139 kts | 251° |
| 2026-05-05 14:51 | 50.08413 | 19.83095 | 1224 ft | 135 kts | 255° |
| 2026-05-05 14:51 | 50.08203 | 19.81625 | 1052 ft | 142 kts | 252° |
| 2026-05-05 14:52 | 50.08002 | 19.80134 | 852 ft | 139 kts | 255° |
| 2026-05-05 14:52 | 50.07810 | 19.78765 | 805 ft | 114 kts | 259° |
| 2026-05-05 14:52 | 50.07678 | 19.77782 | 800 ft | 71 kts | 257° |
| 2026-05-05 14:52 | 50.07601 | 19.77239 | 804 ft | 37 kts | 258° |
| 2026-05-05 14:53 | 50.07552 | 19.76899 | 805 ft | 14 kts | 250° |
| 2026-05-05 14:53 | 50.07485 | 19.76843 | 804 ft | 13 kts | 179° |
| 2026-05-05 14:53 | 50.07383 | 19.76878 | 802 ft | 16 kts | 168° |
| 2026-05-05 14:53 | 50.07308 | 19.76961 | 802 ft | 14 kts | 87° |
| 2026-05-05 14:54 | 50.07329 | 19.77118 | 802 ft | 16 kts | 78° |
| 2026-05-05 14:54 | 50.07354 | 19.77299 | 802 ft | 18 kts | 78° |
| 2026-05-05 14:54 | 50.07382 | 19.77504 | 802 ft | 21 kts | 77° |
| 2026-05-05 14:54 | 50.07415 | 19.77733 | 802 ft | 23 kts | 78° |
| 2026-05-05 14:55 | 50.07450 | 19.77984 | 802 ft | 25 kts | 77° |
| 2026-05-05 14:55 | 50.07489 | 19.78260 | 802 ft | 27 kts | 77° |
| 2026-05-05 14:55 | 50.07529 | 19.78553 | 802 ft | 29 kts | 77° |
| 2026-05-05 14:55 | 50.07572 | 19.78863 | 802 ft | 30 kts | 78° |
| 2026-05-05 14:56 | 50.07617 | 19.79188 | 802 ft | 31 kts | 77° |
| 2026-05-05 14:56 | 50.07663 | 19.79514 | 802 ft | 30 kts | 77° |
| 2026-05-05 14:56 | 50.07704 | 19.79814 | 802 ft | 14 kts | 87° |
| 2026-05-05 14:56 | 50.07631 | 19.79893 | 802 ft | 15 kts | 168° |
| 2026-05-05 14:57 | 50.07531 | 19.79927 | 802 ft | 10 kts | 160° |
| 2026-05-05 14:57 | 50.07516 | 19.80027 | 802 ft | 11 kts | 78° |
| 2026-05-05 14:57 | 50.07535 | 19.80159 | 802 ft | 14 kts | 77° |
| 2026-05-05 14:57 | 50.07554 | 19.80285 | 802 ft | 7 kts | 63° |
| 2026-05-05 14:58 | 50.07587 | 19.80299 | 802 ft | 4 kts | 349° |
| 2026-05-05 14:58 | 50.07602 | 19.80293 | 802 ft | 0 kts | 346° |